createdAt,value
2018-02-25T07:56:20.681Z,9.73
2018-02-25T07:58:48.226Z,9.47
2018-02-25T08:01:16.511Z,8.90
2018-02-25T08:03:44.796Z,9.50
2018-02-25T08:06:12.311Z,9.57
2018-02-25T08:08:39.829Z,10.13
2018-02-25T08:11:07.385Z,9.70
2018-02-25T08:13:34.948Z,11.20
2018-02-25T08:16:02.435Z,10.90
2018-02-25T08:18:29.963Z,18.00
2018-02-25T08:20:58.262Z,11.40
2018-02-25T08:23:25.775Z,17.90
2018-02-25T08:25:53.393Z,11.47
2018-02-25T08:28:20.945Z,15.70
2018-02-25T08:30:49.234Z,11.57
2018-02-25T08:33:16.762Z,17.30
2018-02-25T08:35:44.377Z,10.33
2018-02-25T08:38:11.917Z,13.03
2018-02-25T08:40:40.187Z,11.23
2018-02-25T08:43:08.493Z,11.73
2018-02-25T08:45:36.016Z,11.57
2018-02-25T08:48:03.529Z,13.43
2018-02-25T08:50:31.069Z,13.30
2018-02-25T08:52:59.454Z,12.40
2018-02-25T08:55:27.741Z,10.00
2018-02-25T08:57:55.249Z,11.93
2018-02-25T09:00:22.767Z,14.10
2018-02-25T09:02:50.288Z,12.13
2018-02-25T09:05:18.778Z,11.90
2018-02-25T09:07:46.303Z,12.70
2018-02-25T09:10:14.465Z,11.53
2018-02-25T09:12:41.984Z,11.33
2018-02-25T09:15:09.643Z,11.33
2018-02-25T09:17:37.453Z,12.27
2018-02-25T09:20:04.970Z,12.37
2018-02-25T09:22:32.483Z,15.33
2018-02-25T09:25:00.046Z,11.17
2018-02-25T09:27:27.564Z,11.30
2018-02-25T09:29:55.102Z,12.67
2018-02-25T09:32:22.610Z,12.40
2018-02-25T09:34:50.199Z,10.27
2018-02-25T09:37:17.731Z,11.57
2018-02-25T09:39:45.317Z,10.97
2018-02-25T09:42:13.615Z,13.03
2018-02-25T09:44:41.163Z,11.07
2018-02-25T09:47:09.444Z,13.63
2018-02-25T09:49:37.718Z,12.83
2018-02-25T09:52:06.019Z,11.53
2018-02-25T09:54:33.576Z,10.10
2018-02-25T09:57:01.850Z,11.07
2018-02-25T09:59:30.142Z,21.90
2018-02-25T10:01:57.697Z,20.80
2018-02-25T10:04:25.999Z,12.47
2018-02-25T10:06:53.520Z,18.17
2018-02-25T10:09:21.036Z,18.57
2018-02-25T10:11:48.551Z,16.80
2018-02-25T10:14:16.088Z,13.83
2018-02-25T10:16:43.599Z,12.67
2018-02-25T10:19:11.879Z,18.30
2018-02-25T10:21:40.159Z,14.03
2018-02-25T10:24:08.448Z,15.23
2018-02-25T10:26:35.960Z,14.20
2018-02-25T10:29:03.482Z,17.70
2018-02-25T10:31:31.025Z,12.97
2018-02-25T10:33:59.324Z,13.93
2018-02-25T10:36:26.850Z,13.23
2018-02-25T10:38:54.387Z,12.03
2018-02-25T10:41:21.996Z,13.60
2018-02-25T10:43:50.279Z,12.83
2018-02-25T10:46:18.566Z,13.60
2018-02-25T10:48:46.842Z,13.23
2018-02-25T10:51:15.128Z,10.97
2018-02-25T10:53:42.643Z,11.10
2018-02-25T10:56:10.149Z,11.03
2018-02-25T10:58:38.435Z,14.60
2018-02-25T11:01:07.755Z,10.23
2018-02-25T11:03:35.322Z,9.43
2018-02-25T11:06:02.826Z,11.37
2018-02-25T11:08:30.342Z,10.73
2018-02-25T11:10:57.914Z,9.77
2018-02-25T11:13:25.433Z,9.57
2018-02-25T11:15:52.958Z,10.00
2018-02-25T11:18:20.491Z,10.23
2018-02-25T11:20:48.669Z,11.33
2018-02-25T11:23:16.244Z,11.13
2018-02-25T11:25:43.753Z,11.13
2018-02-25T11:28:11.268Z,9.83
2018-02-25T11:30:38.784Z,11.17
2018-02-25T11:33:06.391Z,9.40
2018-02-25T11:35:33.905Z,9.03
2018-02-25T11:38:01.421Z,9.90
2018-02-25T11:40:28.923Z,9.23
2018-02-25T11:42:56.740Z,8.87
2018-02-25T11:45:25.115Z,9.50
2018-02-25T11:47:53.401Z,9.00
2018-02-25T11:50:21.674Z,8.90
2018-02-25T11:52:49.953Z,10.67
2018-02-25T11:55:18.294Z,8.97
2018-02-25T11:57:45.763Z,11.30
2018-02-25T12:00:13.285Z,9.57
2018-02-25T12:02:40.836Z,9.47
2018-02-25T12:05:09.112Z,9.80
2018-02-25T12:07:37.500Z,8.63
2018-02-25T12:10:05.807Z,9.37
2018-02-25T12:12:33.302Z,9.33
2018-02-25T12:15:00.920Z,10.23
2018-02-25T12:17:28.475Z,9.33
2018-02-25T12:19:56.038Z,11.70
2018-02-25T12:22:24.325Z,10.63
2018-02-25T12:24:51.879Z,7.83
2018-02-25T12:27:20.150Z,7.73
2018-02-25T12:29:48.426Z,12.23
2018-02-25T12:32:16.705Z,7.77
2018-02-25T12:34:44.288Z,8.77
2018-02-25T12:37:12.667Z,8.87
2018-02-25T12:39:40.941Z,8.73
2018-02-25T12:42:09.209Z,8.43
2018-02-25T12:44:36.718Z,11.60
2018-02-25T12:47:04.229Z,8.60
2018-02-25T12:49:31.748Z,8.67
2018-02-25T12:51:59.285Z,9.90
2018-02-25T12:54:27.558Z,8.13
2018-02-25T12:56:55.832Z,7.63
2018-02-25T12:59:24.106Z,8.00
2018-02-25T13:01:52.410Z,6.73
2018-02-25T13:04:19.933Z,9.23
2018-02-25T13:06:48.050Z,8.57
2018-02-25T13:09:15.558Z,7.30
2018-02-25T13:11:43.166Z,8.40
2018-02-25T13:14:11.465Z,12.37
2018-02-25T13:16:39.020Z,8.93
2018-02-25T13:19:07.298Z,17.70
2018-02-25T13:21:35.580Z,7.63
2018-02-25T13:24:03.854Z,8.00
2018-02-25T13:26:32.965Z,10.00
2018-02-25T13:29:00.472Z,9.87
2018-02-25T13:31:27.997Z,10.50
2018-02-25T13:33:55.523Z,8.37
2018-02-25T13:36:23.125Z,7.60
2018-02-25T13:38:50.680Z,9.20
2018-02-25T13:41:18.974Z,7.43
2018-02-25T13:43:46.529Z,7.37
2018-02-25T13:46:14.048Z,7.80
2018-02-25T13:48:43.068Z,7.53
2018-02-25T13:51:10.578Z,7.83
2018-02-25T13:53:38.105Z,8.13
2018-02-25T13:56:06.387Z,7.43
2018-02-25T13:58:34.673Z,7.83
2018-02-25T14:01:03.678Z,8.10
2018-02-25T14:03:31.228Z,8.83
2018-02-25T14:05:59.508Z,9.23
2018-02-25T14:08:27.936Z,6.83
2018-02-25T14:10:55.442Z,7.27
2018-02-25T14:13:22.953Z,7.97
2018-02-25T14:15:50.470Z,8.90
2018-02-25T14:18:18.063Z,9.20
2018-02-25T14:20:45.581Z,9.67
2018-02-25T14:23:13.086Z,7.73
2018-02-25T14:25:41.181Z,9.80
2018-02-25T14:28:08.714Z,8.80
2018-02-25T14:30:36.994Z,10.80
2018-02-25T14:33:05.267Z,9.60
2018-02-25T14:35:33.558Z,9.53
2018-02-25T14:38:01.828Z,7.00
2018-02-25T14:40:30.130Z,7.63
2018-02-25T14:42:57.658Z,8.27
2018-02-25T14:45:25.259Z,9.50
2018-02-25T14:47:52.768Z,7.87
2018-02-25T14:50:20.274Z,9.37
2018-02-25T14:52:48.547Z,7.73
2018-02-25T14:55:16.817Z,7.77
2018-02-25T14:57:45.102Z,7.63
2018-02-25T15:00:13.377Z,9.60
2018-02-25T15:02:40.889Z,9.43
2018-02-25T15:05:08.402Z,7.47
2018-02-25T15:07:36.688Z,7.50
2018-02-25T15:10:04.203Z,8.37
2018-02-25T15:12:31.715Z,7.83
2018-02-25T15:14:59.218Z,8.10
2018-02-25T15:17:26.732Z,6.60
2018-02-25T15:19:54.335Z,8.57
2018-02-25T15:22:21.859Z,7.87
2018-02-25T15:24:49.450Z,7.87
2018-02-25T15:27:17.730Z,8.30
2018-02-25T15:29:46.042Z,7.80
2018-02-25T15:32:13.570Z,7.77
2018-02-25T15:34:41.880Z,6.03
2018-02-25T15:37:09.437Z,7.53
2018-02-25T15:39:36.947Z,8.60
2018-02-25T15:42:04.460Z,7.27
2018-02-25T15:44:31.996Z,8.20
2018-02-25T15:47:00.298Z,7.63
2018-02-25T15:49:27.809Z,6.87
2018-02-25T15:51:55.417Z,8.43
2018-02-25T15:54:23.928Z,7.83
2018-02-25T15:56:51.433Z,7.77
2018-02-25T15:59:19.034Z,5.63
2018-02-25T16:01:48.276Z,7.40
2018-02-25T16:04:15.790Z,6.07
2018-02-25T16:06:44.067Z,6.53
2018-02-25T16:09:12.344Z,7.20
2018-02-25T16:11:39.923Z,8.00
2018-02-25T16:14:08.201Z,5.67
2018-02-25T16:16:36.495Z,6.80
2018-02-25T16:19:04.070Z,7.00
2018-02-25T16:21:31.592Z,6.60
2018-02-25T16:23:59.183Z,10.03
2018-02-25T16:26:27.454Z,8.37
2018-02-25T16:28:55.779Z,9.87
2018-02-25T16:31:23.282Z,8.40
2018-02-25T16:33:50.888Z,7.10
2018-02-25T16:36:18.409Z,8.50
2018-02-25T16:38:46.007Z,10.80
2018-02-25T16:41:13.575Z,11.10
2018-02-25T16:43:41.086Z,9.32
2018-02-25T16:46:08.713Z,10.37
2018-02-25T16:48:36.251Z,5.43
2018-02-25T16:51:04.546Z,6.83
2018-02-25T16:53:32.100Z,6.43
2018-02-25T16:56:00.374Z,8.23
2018-02-25T16:58:28.668Z,6.40
2018-02-25T17:00:56.222Z,7.67
2018-02-25T17:03:24.575Z,6.80
2018-02-25T17:05:52.059Z,6.33
2018-02-25T17:08:20.351Z,7.17
2018-02-25T17:10:48.636Z,5.67
2018-02-25T17:13:16.930Z,6.97
2018-02-25T17:15:44.440Z,7.93
2018-02-25T17:18:11.968Z,7.63
2018-02-25T17:20:39.509Z,7.13
2018-02-25T17:23:07.029Z,7.40
2018-02-25T17:25:34.642Z,7.07
2018-02-25T17:28:02.284Z,7.50
2018-02-25T17:30:29.780Z,6.57
2018-02-25T17:32:57.293Z,7.27
2018-02-25T17:35:24.810Z,7.93
2018-02-25T17:37:52.353Z,8.10
2018-02-25T17:40:20.627Z,10.27
2018-02-25T17:42:48.904Z,9.33
2018-02-25T17:45:17.177Z,11.47
2018-02-25T17:47:44.893Z,10.40
2018-02-25T17:50:12.414Z,11.57
2018-02-25T17:52:40.684Z,10.13
2018-02-25T17:55:08.207Z,8.97
2018-02-25T17:57:35.718Z,9.60
2018-02-25T18:00:03.992Z,9.57
2018-02-25T18:02:31.569Z,10.97
2018-02-25T18:04:59.846Z,9.07
2018-02-25T18:07:28.130Z,9.67
2018-02-25T18:09:56.418Z,12.33
2018-02-25T18:12:24.706Z,9.07
2018-02-25T18:14:52.210Z,8.53
2018-02-25T18:17:20.457Z,11.80
2018-02-25T18:19:47.963Z,8.83
2018-02-25T18:22:15.974Z,8.47
2018-02-25T18:24:44.265Z,9.70
2018-02-25T18:27:11.789Z,10.27
2018-02-25T18:29:39.306Z,8.23
2018-02-25T18:32:06.850Z,8.10
2018-02-25T18:34:35.234Z,8.27
2018-02-25T18:37:04.525Z,9.30
2018-02-25T18:39:32.805Z,9.80
2018-02-25T18:42:01.100Z,8.87
2018-02-25T18:44:28.620Z,10.77
2018-02-25T18:46:56.144Z,9.13
2018-02-25T18:49:23.695Z,9.30
2018-02-25T18:51:51.220Z,11.60
2018-02-25T18:54:18.866Z,9.23
2018-02-25T18:56:46.393Z,8.77
2018-02-25T18:59:13.907Z,10.23
2018-02-25T19:01:41.432Z,7.10
2018-02-25T19:04:08.950Z,8.23
2018-02-25T19:06:36.539Z,11.20
2018-02-25T19:09:04.875Z,8.33
2018-02-25T19:11:33.932Z,7.57
2018-02-25T19:14:01.519Z,8.00
2018-02-25T19:16:29.041Z,7.67
2018-02-25T19:18:57.341Z,7.83
2018-02-25T19:21:24.909Z,7.03
2018-02-25T19:23:52.457Z,8.07
2018-02-25T19:26:20.739Z,7.43
2018-02-25T19:28:49.034Z,7.00
2018-02-25T19:31:16.545Z,7.90
2018-02-25T19:33:44.053Z,7.10
2018-02-25T19:36:27.376Z,7.43
2018-02-25T19:39:00.489Z,8.03
2018-02-25T19:41:33.606Z,9.53
2018-02-25T19:44:01.108Z,7.90
2018-02-25T19:46:29.384Z,6.53
2018-02-25T19:48:57.664Z,6.27
2018-02-25T19:51:25.937Z,6.23
2018-02-25T19:53:54.233Z,5.63
2018-02-25T19:56:22.517Z,6.20
2018-02-25T19:58:50.790Z,5.87
2018-02-25T20:01:19.087Z,6.80
2018-02-25T20:03:46.619Z,6.63
2018-02-25T20:06:14.937Z,6.83
2018-02-25T20:08:42.494Z,6.63
2018-02-25T20:11:10.051Z,6.67
2018-02-25T20:13:38.441Z,7.40
2018-02-25T20:16:05.950Z,6.77
2018-02-25T20:18:33.467Z,6.83
2018-02-25T20:21:01.003Z,7.03
2018-02-25T20:23:28.512Z,9.27
2018-02-25T20:25:56.044Z,10.13
2018-02-25T20:28:24.337Z,7.23
2018-02-25T20:30:51.862Z,8.43
2018-02-25T20:33:19.394Z,6.33
2018-02-25T20:35:46.921Z,7.70
2018-02-25T20:38:15.224Z,8.50
2018-02-25T20:40:42.736Z,6.90
2018-02-25T20:43:10.243Z,7.87
2018-02-25T20:45:37.758Z,7.50
2018-02-25T20:48:05.359Z,9.43
2018-02-25T20:50:33.636Z,7.03
2018-02-25T20:53:01.918Z,5.27
2018-02-25T20:55:29.498Z,7.10
2018-02-25T20:57:57.012Z,6.33
